sensor_id;sensor_type;location;lat;lon;timestamp;temperature;humidity
7530;DHT22;3806;52.270;10.544;2023-04-25T00:00:29;9.90;98.00
7530;DHT22;3806;52.270;10.544;2023-04-25T00:02:54;9.90;97.90
7530;DHT22;3806;52.270;10.544;2023-04-25T00:05:26;9.90;98.00
7530;DHT22;3806;52.270;10.544;2023-04-25T00:07:53;9.90;98.10
7530;DHT22;3806;52.270;10.544;2023-04-25T00:10:20;9.80;98.10
7530;DHT22;3806;52.270;10.544;2023-04-25T00:12:46;9.80;98.20
7530;DHT22;3806;52.270;10.544;2023-04-25T00:15:12;9.80;98.20
7530;DHT22;3806;52.270;10.544;2023-04-25T00:17:38;9.80;98.20
7530;DHT22;3806;52.270;10.544;2023-04-25T00:20:04;9.80;98.20
7530;DHT22;3806;52.270;10.544;2023-04-25T00:22:31;9.80;98.60
7530;DHT22;3806;52.270;10.544;2023-04-25T00:24:57;9.70;98.30
7530;DHT22;3806;52.270;10.544;2023-04-25T00:27:25;9.70;98.50
7530;DHT22;3806;52.270;10.544;2023-04-25T00:29:52;9.70;98.60
7530;DHT22;3806;52.270;10.544;2023-04-25T00:32:18;9.60;98.70
7530;DHT22;3806;52.270;10.544;2023-04-25T00:34:44;9.60;98.80
7530;DHT22;3806;52.270;10.544;2023-04-25T00:37:09;9.60;98.90
7530;DHT22;3806;52.270;10.544;2023-04-25T00:39:35;9.60;99.00
7530;DHT22;3806;52.270;10.544;2023-04-25T00:42:04;9.60;99.00
7530;DHT22;3806;52.270;10.544;2023-04-25T00:44:31;9.60;99.10
7530;DHT22;3806;52.270;10.544;2023-04-25T00:46:58;9.60;99.20
7530;DHT22;3806;52.270;10.544;2023-04-25T00:49:24;9.60;99.20
7530;DHT22;3806;52.270;10.544;2023-04-25T00:51:50;9.60;99.20
7530;DHT22;3806;52.270;10.544;2023-04-25T00:54:16;9.60;99.40
7530;DHT22;3806;52.270;10.544;2023-04-25T00:56:42;9.50;99.50
7530;DHT22;3806;52.270;10.544;2023-04-25T00:59:09;9.60;99.50
7530;DHT22;3806;52.270;10.544;2023-04-25T01:01:35;9.60;99.60
7530;DHT22;3806;52.270;10.544;2023-04-25T01:04:01;9.60;99.50
7530;DHT22;3806;52.270;10.544;2023-04-25T01:06:28;9.60;99.50
7530;DHT22;3806;52.270;10.544;2023-04-25T01:08:54;9.60;99.50
7530;DHT22;3806;52.270;10.544;2023-04-25T01:11:21;9.60;99.50
7530;DHT22;3806;52.270;10.544;2023-04-25T01:13:47;9.60;99.40
7530;DHT22;3806;52.270;10.544;2023-04-25T01:16:13;9.60;99.40
7530;DHT22;3806;52.270;10.544;2023-04-25T01:18:39;9.60;99.50
7530;DHT22;3806;52.270;10.544;2023-04-25T01:21:11;9.60;99.40
7530;DHT22;3806;52.270;10.544;2023-04-25T01:23:42;9.60;99.20
7530;DHT22;3806;52.270;10.544;2023-04-25T01:26:11;9.60;99.20
7530;DHT22;3806;52.270;10.544;2023-04-25T01:28:39;9.60;99.20
7530;DHT22;3806;52.270;10.544;2023-04-25T01:31:08;9.60;99.10
7530;DHT22;3806;52.270;10.544;2023-04-25T01:33:34;9.50;99.00
7530;DHT22;3806;52.270;10.544;2023-04-25T01:36:01;9.60;99.10
7530;DHT22;3806;52.270;10.544;2023-04-25T01:38:27;9.50;99.10
7530;DHT22;3806;52.270;10.544;2023-04-25T01:40:53;9.50;99.10
7530;DHT22;3806;52.270;10.544;2023-04-25T01:43:20;9.50;99.10
7530;DHT22;3806;52.270;10.544;2023-04-25T01:45:46;9.50;99.10
7530;DHT22;3806;52.270;10.544;2023-04-25T01:48:13;9.50;99.10
7530;DHT22;3806;52.270;10.544;2023-04-25T01:50:40;9.50;99.10
7530;DHT22;3806;52.270;10.544;2023-04-25T01:53:06;9.50;99.30
7530;DHT22;3806;52.270;10.544;2023-04-25T01:55:34;9.50;99.40
7530;DHT22;3806;52.270;10.544;2023-04-25T01:58:02;9.50;99.50
7530;DHT22;3806;52.270;10.544;2023-04-25T02:00:28;9.40;99.50
7530;DHT22;3806;52.270;10.544;2023-04-25T02:02:58;9.40;99.60
7530;DHT22;3806;52.270;10.544;2023-04-25T02:05:23;9.40;99.60
7530;DHT22;3806;52.270;10.544;2023-04-25T02:07:49;9.40;99.60
7530;DHT22;3806;52.270;10.544;2023-04-25T02:10:14;9.40;99.60
7530;DHT22;3806;52.270;10.544;2023-04-25T02:12:41;9.40;99.70
7530;DHT22;3806;52.270;10.544;2023-04-25T02:15:08;9.40;99.80
7530;DHT22;3806;52.270;10.544;2023-04-25T02:17:34;9.40;99.80
7530;DHT22;3806;52.270;10.544;2023-04-25T02:19:59;9.40;99.90
7530;DHT22;3806;52.270;10.544;2023-04-25T02:22:26;9.30;99.90
7530;DHT22;3806;52.270;10.544;2023-04-25T02:24:54;9.30;99.90
7530;DHT22;3806;52.270;10.544;2023-04-25T02:27:21;9.30;99.90
7530;DHT22;3806;52.270;10.544;2023-04-25T02:29:47;9.20;99.90
7530;DHT22;3806;52.270;10.544;2023-04-25T02:32:12;9.30;99.90
7530;DHT22;3806;52.270;10.544;2023-04-25T02:34:38;9.20;99.90
7530;DHT22;3806;52.270;10.544;2023-04-25T02:37:04;9.20;99.90
7530;DHT22;3806;52.270;10.544;2023-04-25T02:39:29;9.30;99.90
7530;DHT22;3806;52.270;10.544;2023-04-25T02:41:56;9.20;99.90
7530;DHT22;3806;52.270;10.544;2023-04-25T02:44:22;9.20;99.90
7530;DHT22;3806;52.270;10.544;2023-04-25T02:46:47;9.20;99.90
7530;DHT22;3806;52.270;10.544;2023-04-25T02:49:13;9.30;99.90
7530;DHT22;3806;52.270;10.544;2023-04-25T02:51:39;9.20;99.90
7530;DHT22;3806;52.270;10.544;2023-04-25T02:54:04;9.20;99.90
7530;DHT22;3806;52.270;10.544;2023-04-25T02:56:32;9.20;99.90
7530;DHT22;3806;52.270;10.544;2023-04-25T02:58:59;9.20;99.90
7530;DHT22;3806;52.270;10.544;2023-04-25T03:01:25;9.20;99.90
7530;DHT22;3806;52.270;10.544;2023-04-25T03:03:51;9.00;99.90
7530;DHT22;3806;52.270;10.544;2023-04-25T03:06:16;9.10;99.90
7530;DHT22;3806;52.270;10.544;2023-04-25T03:08:42;9.10;99.90
7530;DHT22;3806;52.270;10.544;2023-04-25T03:11:08;9.20;99.90
7530;DHT22;3806;52.270;10.544;2023-04-25T03:13:33;9.20;99.90
7530;DHT22;3806;52.270;10.544;2023-04-25T03:15:59;9.20;99.90
7530;DHT22;3806;52.270;10.544;2023-04-25T03:18:26;9.20;99.90
7530;DHT22;3806;52.270;10.544;2023-04-25T03:20:51;9.20;99.90
7530;DHT22;3806;52.270;10.544;2023-04-25T03:23:18;9.20;99.90
7530;DHT22;3806;52.270;10.544;2023-04-25T03:25:44;9.10;99.90
7530;DHT22;3806;52.270;10.544;2023-04-25T03:28:09;9.00;99.90
7530;DHT22;3806;52.270;10.544;2023-04-25T03:30:35;9.10;99.90
7530;DHT22;3806;52.270;10.544;2023-04-25T03:33:01;9.10;99.90
7530;DHT22;3806;52.270;10.544;2023-04-25T03:35:27;9.10;99.90
7530;DHT22;3806;52.270;10.544;2023-04-25T03:37:53;9.10;99.90
7530;DHT22;3806;52.270;10.544;2023-04-25T03:40:19;9.00;99.90
7530;DHT22;3806;52.270;10.544;2023-04-25T03:42:45;9.00;99.90
7530;DHT22;3806;52.270;10.544;2023-04-25T03:45:11;9.00;99.90
7530;DHT22;3806;52.270;10.544;2023-04-25T03:47:37;9.00;99.90
7530;DHT22;3806;52.270;10.544;2023-04-25T03:50:03;9.00;99.90
7530;DHT22;3806;52.270;10.544;2023-04-25T03:52:29;9.00;99.90
7530;DHT22;3806;52.270;10.544;2023-04-25T03:54:55;9.00;99.90
7530;DHT22;3806;52.270;10.544;2023-04-25T03:57:21;9.00;99.90
7530;DHT22;3806;52.270;10.544;2023-04-25T03:59:47;8.90;99.90
7530;DHT22;3806;52.270;10.544;2023-04-25T04:02:13;8.80;99.90
7530;DHT22;3806;52.270;10.544;2023-04-25T04:04:38;8.80;99.90
7530;DHT22;3806;52.270;10.544;2023-04-25T04:07:04;8.80;99.90
7530;DHT22;3806;52.270;10.544;2023-04-25T04:09:30;8.70;99.90
7530;DHT22;3806;52.270;10.544;2023-04-25T04:11:56;8.80;99.90
7530;DHT22;3806;52.270;10.544;2023-04-25T04:14:22;8.80;99.90
7530;DHT22;3806;52.270;10.544;2023-04-25T04:16:47;8.80;99.90
7530;DHT22;3806;52.270;10.544;2023-04-25T04:19:14;8.80;99.90
7530;DHT22;3806;52.270;10.544;2023-04-25T04:21:39;8.80;99.90
7530;DHT22;3806;52.270;10.544;2023-04-25T04:24:06;8.80;99.90
7530;DHT22;3806;52.270;10.544;2023-04-25T04:26:32;8.80;99.90
7530;DHT22;3806;52.270;10.544;2023-04-25T04:28:59;8.80;99.90
7530;DHT22;3806;52.270;10.544;2023-04-25T04:31:26;8.80;99.90
7530;DHT22;3806;52.270;10.544;2023-04-25T04:33:52;8.80;99.90
7530;DHT22;3806;52.270;10.544;2023-04-25T04:36:17;8.80;99.90
7530;DHT22;3806;52.270;10.544;2023-04-25T04:38:47;8.80;99.90
7530;DHT22;3806;52.270;10.544;2023-04-25T04:41:13;8.80;99.90
7530;DHT22;3806;52.270;10.544;2023-04-25T04:43:38;8.90;99.90
7530;DHT22;3806;52.270;10.544;2023-04-25T04:46:05;9.00;99.90
7530;DHT22;3806;52.270;10.544;2023-04-25T04:48:32;9.00;99.90
7530;DHT22;3806;52.270;10.544;2023-04-25T04:51:01;9.00;99.90
7530;DHT22;3806;52.270;10.544;2023-04-25T04:53:27;9.00;99.90
7530;DHT22;3806;52.270;10.544;2023-04-25T04:55:53;9.10;99.90
7530;DHT22;3806;52.270;10.544;2023-04-25T04:58:18;9.10;99.90
7530;DHT22;3806;52.270;10.544;2023-04-25T05:00:44;9.10;99.90
7530;DHT22;3806;52.270;10.544;2023-04-25T05:03:10;9.20;99.90
7530;DHT22;3806;52.270;10.544;2023-04-25T05:05:37;9.20;99.90
7530;DHT22;3806;52.270;10.544;2023-04-25T05:08:06;9.30;99.90
7530;DHT22;3806;52.270;10.544;2023-04-25T05:10:31;9.30;99.90
7530;DHT22;3806;52.270;10.544;2023-04-25T05:12:57;9.30;99.90
7530;DHT22;3806;52.270;10.544;2023-04-25T05:15:22;9.40;99.90
7530;DHT22;3806;52.270;10.544;2023-04-25T05:17:48;9.40;99.90
7530;DHT22;3806;52.270;10.544;2023-04-25T05:20:13;9.50;99.90
7530;DHT22;3806;52.270;10.544;2023-04-25T05:22:39;9.50;99.90
7530;DHT22;3806;52.270;10.544;2023-04-25T05:25:07;9.50;99.90
7530;DHT22;3806;52.270;10.544;2023-04-25T05:27:33;9.50;99.90
7530;DHT22;3806;52.270;10.544;2023-04-25T05:29:59;9.50;99.90
7530;DHT22;3806;52.270;10.544;2023-04-25T05:32:25;9.50;99.90
7530;DHT22;3806;52.270;10.544;2023-04-25T05:34:51;9.50;99.90
7530;DHT22;3806;52.270;10.544;2023-04-25T05:37:17;9.60;99.90
7530;DHT22;3806;52.270;10.544;2023-04-25T05:39:43;9.60;99.90
7530;DHT22;3806;52.270;10.544;2023-04-25T05:42:09;9.70;99.90
7530;DHT22;3806;52.270;10.544;2023-04-25T05:44:35;9.90;99.90
7530;DHT22;3806;52.270;10.544;2023-04-25T05:47:01;10.20;99.10
7530;DHT22;3806;52.270;10.544;2023-04-25T05:49:27;10.80;98.20
7530;DHT22;3806;52.270;10.544;2023-04-25T05:51:53;11.30;97.00
7530;DHT22;3806;52.270;10.544;2023-04-25T05:54:19;11.40;95.10
7530;DHT22;3806;52.270;10.544;2023-04-25T05:56:44;11.40;94.70
7530;DHT22;3806;52.270;10.544;2023-04-25T05:59:10;11.40;94.50
7530;DHT22;3806;52.270;10.544;2023-04-25T06:01:35;11.30;94.20
7530;DHT22;3806;52.270;10.544;2023-04-25T06:04:01;11.40;94.30
7530;DHT22;3806;52.270;10.544;2023-04-25T06:06:27;11.70;93.00
7530;DHT22;3806;52.270;10.544;2023-04-25T06:08:52;12.10;91.30
7530;DHT22;3806;52.270;10.544;2023-04-25T06:11:18;12.40;90.30
7530;DHT22;3806;52.270;10.544;2023-04-25T06:13:43;12.80;88.80
7530;DHT22;3806;52.270;10.544;2023-04-25T06:16:09;12.80;86.90
7530;DHT22;3806;52.270;10.544;2023-04-25T06:18:34;12.80;86.50
7530;DHT22;3806;52.270;10.544;2023-04-25T06:21:00;12.70;84.10
7530;DHT22;3806;52.270;10.544;2023-04-25T06:23:25;12.70;83.20
7530;DHT22;3806;52.270;10.544;2023-04-25T06:25:51;12.80;82.90
7530;DHT22;3806;52.270;10.544;2023-04-25T06:28:17;13.10;82.60
7530;DHT22;3806;52.270;10.544;2023-04-25T06:30:42;13.80;79.80
7530;DHT22;3806;52.270;10.544;2023-04-25T06:33:08;14.60;73.70
7530;DHT22;3806;52.270;10.544;2023-04-25T06:35:34;15.40;67.00
7530;DHT22;3806;52.270;10.544;2023-04-25T06:37:59;16.40;60.30
7530;DHT22;3806;52.270;10.544;2023-04-25T06:40:25;17.80;54.40
7530;DHT22;3806;52.270;10.544;2023-04-25T06:42:50;19.30;47.60
7530;DHT22;3806;52.270;10.544;2023-04-25T06:45:16;19.70;44.20
7530;DHT22;3806;52.270;10.544;2023-04-25T06:47:41;19.10;42.00
7530;DHT22;3806;52.270;10.544;2023-04-25T06:50:07;18.20;42.10
7530;DHT22;3806;52.270;10.544;2023-04-25T06:52:33;17.30;43.20
7530;DHT22;3806;52.270;10.544;2023-04-25T06:54:58;16.60;44.90
7530;DHT22;3806;52.270;10.544;2023-04-25T06:57:24;16.20;46.10
7530;DHT22;3806;52.270;10.544;2023-04-25T06:59:49;16.20;47.30
7530;DHT22;3806;52.270;10.544;2023-04-25T07:02:15;17.50;47.20
7530;DHT22;3806;52.270;10.544;2023-04-25T07:04:40;18.40;44.80
7530;DHT22;3806;52.270;10.544;2023-04-25T07:07:06;18.60;43.60
7530;DHT22;3806;52.270;10.544;2023-04-25T07:09:33;18.50;43.00
7530;DHT22;3806;52.270;10.544;2023-04-25T07:12:01;18.00;42.20
7530;DHT22;3806;52.270;10.544;2023-04-25T07:14:27;17.10;40.50
7530;DHT22;3806;52.270;10.544;2023-04-25T07:16:52;16.60;39.90
7530;DHT22;3806;52.270;10.544;2023-04-25T07:19:18;16.40;38.90
7530;DHT22;3806;52.270;10.544;2023-04-25T07:21:43;16.50;38.80
7530;DHT22;3806;52.270;10.544;2023-04-25T07:24:09;17.60;37.90
7530;DHT22;3806;52.270;10.544;2023-04-25T07:26:34;19.10;34.90
7530;DHT22;3806;52.270;10.544;2023-04-25T07:29:00;20.70;32.60
7530;DHT22;3806;52.270;10.544;2023-04-25T07:31:25;22.20;29.30
7530;DHT22;3806;52.270;10.544;2023-04-25T07:33:52;23.20;28.60
7530;DHT22;3806;52.270;10.544;2023-04-25T07:36:17;24.50;27.30
7530;DHT22;3806;52.270;10.544;2023-04-25T07:38:43;25.80;25.40
7530;DHT22;3806;52.270;10.544;2023-04-25T07:41:09;26.80;23.80
7530;DHT22;3806;52.270;10.544;2023-04-25T07:43:34;27.70;22.50
7530;DHT22;3806;52.270;10.544;2023-04-25T07:46:00;27.90;20.80
7530;DHT22;3806;52.270;10.544;2023-04-25T07:48:26;27.00;20.00
7530;DHT22;3806;52.270;10.544;2023-04-25T07:50:51;26.00;20.70
7530;DHT22;3806;52.270;10.544;2023-04-25T07:53:17;24.80;20.80
7530;DHT22;3806;52.270;10.544;2023-04-25T07:55:43;23.40;21.80
7530;DHT22;3806;52.270;10.544;2023-04-25T07:58:09;22.70;22.70
7530;DHT22;3806;52.270;10.544;2023-04-25T08:00:35;22.10;23.50
7530;DHT22;3806;52.270;10.544;2023-04-25T08:03:01;21.30;24.20
7530;DHT22;3806;52.270;10.544;2023-04-25T08:05:28;20.30;25.40
7530;DHT22;3806;52.270;10.544;2023-04-25T08:07:53;19.10;25.90
7530;DHT22;3806;52.270;10.544;2023-04-25T08:10:19;17.80;27.00
7530;DHT22;3806;52.270;10.544;2023-04-25T08:12:44;16.80;27.70
7530;DHT22;3806;52.270;10.544;2023-04-25T08:15:10;16.10;28.50
7530;DHT22;3806;52.270;10.544;2023-04-25T08:17:36;15.40;28.70
7530;DHT22;3806;52.270;10.544;2023-04-25T08:20:01;14.80;29.90
7530;DHT22;3806;52.270;10.544;2023-04-25T08:22:30;14.50;31.30
7530;DHT22;3806;52.270;10.544;2023-04-25T08:24:56;14.40;32.10
7530;DHT22;3806;52.270;10.544;2023-04-25T08:27:21;14.70;32.90
7530;DHT22;3806;52.270;10.544;2023-04-25T08:29:47;15.20;32.90
7530;DHT22;3806;52.270;10.544;2023-04-25T08:32:12;15.50;32.40
7530;DHT22;3806;52.270;10.544;2023-04-25T08:34:38;15.50;32.20
7530;DHT22;3806;52.270;10.544;2023-04-25T08:37:07;15.30;32.30
7530;DHT22;3806;52.270;10.544;2023-04-25T08:39:33;15.00;33.50
7530;DHT22;3806;52.270;10.544;2023-04-25T08:41:59;14.70;33.90
7530;DHT22;3806;52.270;10.544;2023-04-25T08:44:27;14.50;34.40
7530;DHT22;3806;52.270;10.544;2023-04-25T08:46:53;14.20;35.70
7530;DHT22;3806;52.270;10.544;2023-04-25T08:49:20;13.70;37.10
7530;DHT22;3806;52.270;10.544;2023-04-25T08:51:46;13.30;39.20
7530;DHT22;3806;52.270;10.544;2023-04-25T08:54:13;12.90;40.40
7530;DHT22;3806;52.270;10.544;2023-04-25T08:56:41;12.60;41.80
7530;DHT22;3806;52.270;10.544;2023-04-25T08:59:07;12.50;42.70
7530;DHT22;3806;52.270;10.544;2023-04-25T09:01:34;12.40;43.80
7530;DHT22;3806;52.270;10.544;2023-04-25T09:04:01;12.50;44.00
7530;DHT22;3806;52.270;10.544;2023-04-25T09:06:28;12.60;43.80
7530;DHT22;3806;52.270;10.544;2023-04-25T09:08:54;12.90;42.10
7530;DHT22;3806;52.270;10.544;2023-04-25T09:11:19;13.10;40.50
7530;DHT22;3806;52.270;10.544;2023-04-25T09:13:45;13.10;38.50
7530;DHT22;3806;52.270;10.544;2023-04-25T09:16:11;13.00;39.20
7530;DHT22;3806;52.270;10.544;2023-04-25T09:18:36;12.80;39.80
7530;DHT22;3806;52.270;10.544;2023-04-25T09:21:10;12.80;40.10
7530;DHT22;3806;52.270;10.544;2023-04-25T09:23:47;13.00;40.30
7530;DHT22;3806;52.270;10.544;2023-04-25T09:26:19;13.70;40.10
7530;DHT22;3806;52.270;10.544;2023-04-25T09:28:45;14.50;37.50
7530;DHT22;3806;52.270;10.544;2023-04-25T09:31:24;14.80;35.80
7530;DHT22;3806;52.270;10.544;2023-04-25T09:33:49;14.90;34.70
7530;DHT22;3806;52.270;10.544;2023-04-25T09:36:15;14.50;34.50
7530;DHT22;3806;52.270;10.544;2023-04-25T09:38:42;14.10;34.50
7530;DHT22;3806;52.270;10.544;2023-04-25T09:41:09;13.80;35.30
7530;DHT22;3806;52.270;10.544;2023-04-25T09:43:35;13.50;36.20
7530;DHT22;3806;52.270;10.544;2023-04-25T09:46:01;13.30;36.80
7530;DHT22;3806;52.270;10.544;2023-04-25T09:48:28;13.10;37.30
7530;DHT22;3806;52.270;10.544;2023-04-25T09:51:14;12.80;37.50
7530;DHT22;3806;52.270;10.544;2023-04-25T09:53:42;12.70;37.70
7530;DHT22;3806;52.270;10.544;2023-04-25T09:56:10;12.60;37.80
7530;DHT22;3806;52.270;10.544;2023-04-25T09:58:37;12.50;38.30
7530;DHT22;3806;52.270;10.544;2023-04-25T10:01:05;12.40;38.30
7530;DHT22;3806;52.270;10.544;2023-04-25T10:03:32;12.30;38.80
7530;DHT22;3806;52.270;10.544;2023-04-25T10:06:04;12.20;39.10
7530;DHT22;3806;52.270;10.544;2023-04-25T10:08:34;12.00;39.80
7530;DHT22;3806;52.270;10.544;2023-04-25T10:11:05;11.80;39.80
7530;DHT22;3806;52.270;10.544;2023-04-25T10:13:33;11.80;40.00
7530;DHT22;3806;52.270;10.544;2023-04-25T10:16:00;12.00;40.30
7530;DHT22;3806;52.270;10.544;2023-04-25T10:18:26;12.20;40.80
7530;DHT22;3806;52.270;10.544;2023-04-25T10:20:58;12.60;40.90
7530;DHT22;3806;52.270;10.544;2023-04-25T10:23:24;12.90;40.10
7530;DHT22;3806;52.270;10.544;2023-04-25T10:25:53;13.00;38.90
7530;DHT22;3806;52.270;10.544;2023-04-25T10:28:19;13.10;38.50
7530;DHT22;3806;52.270;10.544;2023-04-25T10:31:02;13.20;38.80
7530;DHT22;3806;52.270;10.544;2023-04-25T10:36:15;13.10;39.40
7530;DHT22;3806;52.270;10.544;2023-04-25T10:38:43;13.10;40.10
7530;DHT22;3806;52.270;10.544;2023-04-25T10:41:10;13.10;40.40
7530;DHT22;3806;52.270;10.544;2023-04-25T10:43:42;13.10;40.10
7530;DHT22;3806;52.270;10.544;2023-04-25T10:46:25;13.10;40.40
7530;DHT22;3806;52.270;10.544;2023-04-25T10:49:01;13.60;39.80
7530;DHT22;3806;52.270;10.544;2023-04-25T10:51:29;13.80;38.40
7530;DHT22;3806;52.270;10.544;2023-04-25T10:54:00;13.90;37.70
7530;DHT22;3806;52.270;10.544;2023-04-25T10:56:44;13.90;37.30
7530;DHT22;3806;52.270;10.544;2023-04-25T10:59:12;13.90;36.80
7530;DHT22;3806;52.270;10.544;2023-04-25T11:01:42;13.80;36.40
7530;DHT22;3806;52.270;10.544;2023-04-25T11:04:28;13.80;35.90
7530;DHT22;3806;52.270;10.544;2023-04-25T11:09:37;13.70;34.10
7530;DHT22;3806;52.270;10.544;2023-04-25T11:12:03;13.70;33.60
7530;DHT22;3806;52.270;10.544;2023-04-25T11:14:30;13.60;33.60
7530;DHT22;3806;52.270;10.544;2023-04-25T11:16:56;13.30;34.20
7530;DHT22;3806;52.270;10.544;2023-04-25T11:19:23;13.20;35.00
7530;DHT22;3806;52.270;10.544;2023-04-25T11:21:49;13.20;35.80
7530;DHT22;3806;52.270;10.544;2023-04-25T11:24:18;13.10;36.90
7530;DHT22;3806;52.270;10.544;2023-04-25T11:26:46;13.20;37.40
7530;DHT22;3806;52.270;10.544;2023-04-25T11:29:13;13.20;37.00
7530;DHT22;3806;52.270;10.544;2023-04-25T11:31:42;13.20;36.40
7530;DHT22;3806;52.270;10.544;2023-04-25T11:34:08;13.00;36.10
7530;DHT22;3806;52.270;10.544;2023-04-25T11:36:33;13.00;36.00
7530;DHT22;3806;52.270;10.544;2023-04-25T11:38:59;12.80;36.40
7530;DHT22;3806;52.270;10.544;2023-04-25T11:41:25;12.50;36.70
7530;DHT22;3806;52.270;10.544;2023-04-25T11:43:51;12.30;37.50
7530;DHT22;3806;52.270;10.544;2023-04-25T11:46:17;12.00;37.70
7530;DHT22;3806;52.270;10.544;2023-04-25T11:48:45;11.80;38.50
7530;DHT22;3806;52.270;10.544;2023-04-25T11:51:11;11.70;40.00
7530;DHT22;3806;52.270;10.544;2023-04-25T11:53:41;11.50;41.30
7530;DHT22;3806;52.270;10.544;2023-04-25T11:56:10;11.50;42.60
7530;DHT22;3806;52.270;10.544;2023-04-25T11:58:56;11.50;43.00
7530;DHT22;3806;52.270;10.544;2023-04-25T12:01:30;11.60;43.60
7530;DHT22;3806;52.270;10.544;2023-04-25T12:03:56;11.80;43.60
7530;DHT22;3806;52.270;10.544;2023-04-25T12:06:26;12.00;43.40
7530;DHT22;3806;52.270;10.544;2023-04-25T12:09:06;12.30;43.40
7530;DHT22;3806;52.270;10.544;2023-04-25T12:11:33;12.60;42.90
7530;DHT22;3806;52.270;10.544;2023-04-25T12:14:05;12.80;42.00
7530;DHT22;3806;52.270;10.544;2023-04-25T12:16:44;13.00;40.80
7530;DHT22;3806;52.270;10.544;2023-04-25T12:19:13;13.40;39.50
7530;DHT22;3806;52.270;10.544;2023-04-25T12:21:39;13.90;37.20
7530;DHT22;3806;52.270;10.544;2023-04-25T12:24:25;14.10;35.00
7530;DHT22;3806;52.270;10.544;2023-04-25T12:26:53;14.10;34.20
7530;DHT22;3806;52.270;10.544;2023-04-25T12:29:24;14.10;34.30
7530;DHT22;3806;52.270;10.544;2023-04-25T12:31:51;14.10;34.90
7530;DHT22;3806;52.270;10.544;2023-04-25T12:34:18;14.10;35.30
7530;DHT22;3806;52.270;10.544;2023-04-25T12:36:44;14.20;35.40
7530;DHT22;3806;52.270;10.544;2023-04-25T12:39:17;14.30;34.70
7530;DHT22;3806;52.270;10.544;2023-04-25T12:41:44;14.30;35.00
7530;DHT22;3806;52.270;10.544;2023-04-25T12:44:09;14.30;34.40
7530;DHT22;3806;52.270;10.544;2023-04-25T12:46:36;14.30;33.90
7530;DHT22;3806;52.270;10.544;2023-04-25T12:49:01;14.10;33.40
7530;DHT22;3806;52.270;10.544;2023-04-25T12:51:28;13.90;33.90
7530;DHT22;3806;52.270;10.544;2023-04-25T12:53:54;13.70;35.50
7530;DHT22;3806;52.270;10.544;2023-04-25T12:56:20;13.40;36.60
7530;DHT22;3806;52.270;10.544;2023-04-25T12:58:45;13.10;37.70
7530;DHT22;3806;52.270;10.544;2023-04-25T13:01:11;12.90;38.10
7530;DHT22;3806;52.270;10.544;2023-04-25T13:03:39;12.70;38.10
7530;DHT22;3806;52.270;10.544;2023-04-25T13:06:05;12.50;38.40
7530;DHT22;3806;52.270;10.544;2023-04-25T13:08:30;12.30;39.00
7530;DHT22;3806;52.270;10.544;2023-04-25T13:10:56;12.20;39.80
7530;DHT22;3806;52.270;10.544;2023-04-25T13:13:22;12.20;40.40
7530;DHT22;3806;52.270;10.544;2023-04-25T13:15:47;12.40;41.00
7530;DHT22;3806;52.270;10.544;2023-04-25T13:18:13;12.70;40.50
7530;DHT22;3806;52.270;10.544;2023-04-25T13:20:38;12.90;39.80
7530;DHT22;3806;52.270;10.544;2023-04-25T13:23:04;13.10;38.80
7530;DHT22;3806;52.270;10.544;2023-04-25T13:25:29;13.20;39.00
7530;DHT22;3806;52.270;10.544;2023-04-25T13:27:55;13.40;38.70
7530;DHT22;3806;52.270;10.544;2023-04-25T13:30:20;13.60;38.80
7530;DHT22;3806;52.270;10.544;2023-04-25T13:32:46;13.70;39.00
7530;DHT22;3806;52.270;10.544;2023-04-25T13:35:13;13.80;39.30
7530;DHT22;3806;52.270;10.544;2023-04-25T13:37:39;13.90;39.20
7530;DHT22;3806;52.270;10.544;2023-04-25T13:40:07;13.90;39.10
7530;DHT22;3806;52.270;10.544;2023-04-25T13:42:34;13.90;39.30
7530;DHT22;3806;52.270;10.544;2023-04-25T13:45:00;13.90;39.60
7530;DHT22;3806;52.270;10.544;2023-04-25T13:47:26;13.80;39.40
7530;DHT22;3806;52.270;10.544;2023-04-25T13:49:52;13.80;39.40
7530;DHT22;3806;52.270;10.544;2023-04-25T13:52:18;13.80;39.10
7530;DHT22;3806;52.270;10.544;2023-04-25T13:54:44;13.70;38.60
7530;DHT22;3806;52.270;10.544;2023-04-25T13:57:09;13.60;38.70
7530;DHT22;3806;52.270;10.544;2023-04-25T13:59:36;13.50;38.80
7530;DHT22;3806;52.270;10.544;2023-04-25T14:02:02;13.40;38.20
7530;DHT22;3806;52.270;10.544;2023-04-25T14:04:28;13.50;37.90
7530;DHT22;3806;52.270;10.544;2023-04-25T14:06:53;13.60;36.10
7530;DHT22;3806;52.270;10.544;2023-04-25T14:09:19;13.70;33.10
7530;DHT22;3806;52.270;10.544;2023-04-25T14:11:47;13.80;32.00
7530;DHT22;3806;52.270;10.544;2023-04-25T14:14:13;13.80;31.20
7530;DHT22;3806;52.270;10.544;2023-04-25T14:16:41;13.70;31.00
7530;DHT22;3806;52.270;10.544;2023-04-25T14:19:06;13.50;31.10
7530;DHT22;3806;52.270;10.544;2023-04-25T14:21:32;13.30;31.70
7530;DHT22;3806;52.270;10.544;2023-04-25T14:23:58;13.10;32.40
7530;DHT22;3806;52.270;10.544;2023-04-25T14:26:23;13.00;33.50
7530;DHT22;3806;52.270;10.544;2023-04-25T14:28:50;12.90;34.70
7530;DHT22;3806;52.270;10.544;2023-04-25T14:31:16;12.80;35.30
7530;DHT22;3806;52.270;10.544;2023-04-25T14:33:41;12.70;35.90
7530;DHT22;3806;52.270;10.544;2023-04-25T14:36:08;12.70;36.80
7530;DHT22;3806;52.270;10.544;2023-04-25T14:38:34;12.70;37.70
7530;DHT22;3806;52.270;10.544;2023-04-25T14:40:59;12.70;37.90
7530;DHT22;3806;52.270;10.544;2023-04-25T14:43:25;12.60;38.70
7530;DHT22;3806;52.270;10.544;2023-04-25T14:45:51;12.60;39.50
7530;DHT22;3806;52.270;10.544;2023-04-25T14:48:17;12.50;39.90
7530;DHT22;3806;52.270;10.544;2023-04-25T14:50:45;12.50;40.20
7530;DHT22;3806;52.270;10.544;2023-04-25T14:53:10;12.50;40.50
7530;DHT22;3806;52.270;10.544;2023-04-25T14:55:36;12.60;40.80
7530;DHT22;3806;52.270;10.544;2023-04-25T14:58:01;12.60;40.70
7530;DHT22;3806;52.270;10.544;2023-04-25T15:00:27;12.70;40.70
7530;DHT22;3806;52.270;10.544;2023-04-25T15:02:53;12.60;40.70
7530;DHT22;3806;52.270;10.544;2023-04-25T15:05:18;12.70;40.90
7530;DHT22;3806;52.270;10.544;2023-04-25T15:07:44;12.60;41.30
7530;DHT22;3806;52.270;10.544;2023-04-25T15:10:10;12.60;41.80
7530;DHT22;3806;52.270;10.544;2023-04-25T15:12:42;12.60;43.30
7530;DHT22;3806;52.270;10.544;2023-04-25T15:15:09;12.50;44.60
7530;DHT22;3806;52.270;10.544;2023-04-25T15:17:40;12.40;45.60
7530;DHT22;3806;52.270;10.544;2023-04-25T15:20:07;12.30;46.00
7530;DHT22;3806;52.270;10.544;2023-04-25T15:22:35;12.20;46.60
7530;DHT22;3806;52.270;10.544;2023-04-25T15:25:01;12.10;47.20
7530;DHT22;3806;52.270;10.544;2023-04-25T15:27:26;12.10;47.60
7530;DHT22;3806;52.270;10.544;2023-04-25T15:29:52;12.10;47.80
7530;DHT22;3806;52.270;10.544;2023-04-25T15:32:18;12.10;47.90
7530;DHT22;3806;52.270;10.544;2023-04-25T15:34:44;12.20;48.00
7530;DHT22;3806;52.270;10.544;2023-04-25T15:37:09;12.20;48.00
7530;DHT22;3806;52.270;10.544;2023-04-25T15:39:35;12.40;47.80
7530;DHT22;3806;52.270;10.544;2023-04-25T15:42:00;12.50;47.70
7530;DHT22;3806;52.270;10.544;2023-04-25T15:44:26;12.50;47.00
7530;DHT22;3806;52.270;10.544;2023-04-25T15:46:52;12.60;46.70
7530;DHT22;3806;52.270;10.544;2023-04-25T15:49:17;12.60;46.00
7530;DHT22;3806;52.270;10.544;2023-04-25T15:51:44;12.60;45.10
7530;DHT22;3806;52.270;10.544;2023-04-25T15:54:09;12.50;44.60